Time;durP1;ratioP1;P1;durP2;ratioP2;P2;SDS_P1;SDS_P2;PMS_P1;PMS_P2;Temp;Humidity;BMP_temperature;BMP_pressure;BME280_temperature;BME280_humidity;BME280_pressure;Samples;Min_cycle;Max_cycle;Signal;HPM_P1;HPM_P2
2023/07/28 07:38:38;;;;;;;6.43;3.93;;;20.10;99.90;;;;;;6052899;23;19920;31
2023/07/28 07:41:04;;;;;;;7.45;4.38;;;20.40;99.90;;;;;;4923449;29;19919;-73
2023/07/28 07:43:30;;;;;;;5.93;3.53;;;20.70;99.90;;;;;;4915353;29;20039;-72
2023/07/28 07:45:55;;;;;;;5.63;3.65;;;21.00;99.90;;;;;;4907894;29;20041;-74
2023/07/28 07:48:21;;;;;;;7.68;3.38;;;21.40;99.90;;;;;;4924836;29;20040;-72
2023/07/28 07:50:47;;;;;;;5.13;3.42;;;21.80;99.90;;;;;;4925126;29;20055;-74
2023/07/28 07:53:12;;;;;;;7.70;3.70;;;21.90;99.90;;;;;;4928061;29;20087;-74
2023/07/28 07:55:38;;;;;;;5.82;3.15;;;22.00;99.90;;;;;;4927305;29;20147;-73
2023/07/28 07:58:04;;;;;;;4.65;3.00;;;21.90;99.90;;;;;;4927519;29;20210;-73
2023/07/28 08:00:29;;;;;;;6.10;3.47;;;21.80;99.90;;;;;;4926752;29;20048;-74
2023/07/28 08:02:55;;;;;;;6.07;3.00;;;21.70;99.90;;;;;;4927820;29;20032;-76
2023/07/28 08:05:21;;;;;;;6.50;3.53;;;21.70;99.90;;;;;;4910120;29;20288;-75
2023/07/28 08:07:47;;;;;;;5.40;3.25;;;21.80;99.90;;;;;;4927886;29;20032;-74
2023/07/28 08:10:13;;;;;;;5.63;3.55;;;21.80;99.90;;;;;;4927382;29;20119;-73
2023/07/28 08:12:39;;;;;;;6.60;3.40;;;21.90;99.90;;;;;;4926892;29;20032;-74
2023/07/28 08:15:05;;;;;;;5.85;3.22;;;22.00;99.90;;;;;;4927203;29;20036;-73
2023/07/28 08:17:31;;;;;;;8.15;3.78;;;22.00;99.90;;;;;;4926753;29;20024;-73
2023/07/28 08:19:56;;;;;;;6.25;3.70;;;22.00;99.90;;;;;;4927176;29;20076;-74
2023/07/28 08:22:22;;;;;;;6.72;3.80;;;21.90;99.90;;;;;;4926733;29;20099;-73
2023/07/28 08:24:48;;;;;;;8.60;5.47;;;21.90;99.90;;;;;;4926897;29;20099;-73
2023/07/28 08:27:13;;;;;;;5.68;3.22;;;21.80;99.90;;;;;;4927209;29;20095;-72
2023/07/28 08:29:39;;;;;;;8.13;3.55;;;21.70;99.90;;;;;;4926945;29;20098;-74
2023/07/28 08:32:06;;;;;;;6.63;3.78;;;21.70;99.90;;;;;;4927585;29;20071;-74
2023/07/28 08:34:32;;;;;;;7.55;3.60;;;21.60;99.90;;;;;;4926291;29;20062;-73
2023/07/28 08:36:57;;;;;;;5.55;3.72;;;21.70;99.90;;;;;;4927096;29;20020;-73
2023/07/28 08:39:23;;;;;;;10.18;4.90;;;21.80;99.90;;;;;;4927445;29;20040;-74
2023/07/28 08:42:01;;;;;;;6.43;3.53;;;22.00;99.90;;;;;;4926827;29;20083;-73
2023/07/28 08:44:31;;;;;;;8.48;4.28;;;22.10;99.90;;;;;;4926599;29;20087;-74
2023/07/28 08:46:56;;;;;;;8.70;4.55;;;22.30;99.90;;;;;;4926423;29;20336;-73
2023/07/28 08:49:22;;;;;;;6.18;3.00;;;22.50;99.90;;;;;;4926621;29;20028;-73
2023/07/28 08:51:52;;;;;;;5.45;3.10;;;22.50;99.90;;;;;;4926830;29;20032;-73
2023/07/28 08:54:18;;;;;;;7.25;3.70;;;22.50;99.90;;;;;;4926695;29;20044;-73
2023/07/28 08:56:47;;;;;;;9.77;4.40;;;22.60;99.90;;;;;;4909682;29;20038;-73
2023/07/28 08:59:21;;;;;;;7.20;3.83;;;22.80;99.90;;;;;;4926504;29;20270;-73
2023/07/28 09:01:49;;;;;;;8.80;5.82;;;23.00;99.90;;;;;;4926832;29;20028;-73
2023/07/28 09:04:14;;;;;;;6.95;4.50;;;23.20;99.90;;;;;;4926657;29;20047;-72
2023/07/28 09:06:44;;;;;;;8.68;4.25;;;23.20;99.90;;;;;;4909101;29;20032;-72
2023/07/28 09:09:10;;;;;;;9.60;5.18;;;23.10;99.90;;;;;;4926461;29;20028;-73
2023/07/28 09:11:46;;;;;;;8.55;3.42;;;22.80;99.90;;;;;;4925931;29;20229;-72
2023/07/28 09:14:13;;;;;;;7.18;3.63;;;22.80;99.90;;;;;;4926370;29;20305;-72
2023/07/28 09:16:39;;;;;;;6.88;3.92;;;22.70;99.90;;;;;;4926077;29;20044;-71
2023/07/28 09:19:09;;;;;;;9.48;4.00;;;22.70;99.90;;;;;;4926359;29;20087;-73
2023/07/28 09:21:35;;;;;;;9.02;4.03;;;22.60;99.90;;;;;;4925814;29;20036;-72
2023/07/28 09:24:06;;;;;;;17.27;12.48;;;22.60;99.90;;;;;;4926295;29;20020;-72
2023/07/28 09:26:42;;;;;;;16.95;10.55;;;22.50;99.90;;;;;;4925449;29;20064;-73
2023/07/28 09:29:15;;;;;;;9.38;5.18;;;22.40;99.90;;;;;;4926211;29;20039;-73
2023/07/28 09:31:41;;;;;;;7.05;4.50;;;22.30;99.90;;;;;;4925846;29;20036;-73
2023/07/28 09:34:08;;;;;;;7.85;4.07;;;22.20;99.90;;;;;;4926032;29;20089;-73
2023/07/28 09:36:35;;;;;;;8.88;5.40;;;22.10;99.90;;;;;;4907006;29;20253;-72
2023/07/28 09:39:03;;;;;;;7.10;3.47;;;22.40;99.90;;;;;;4907064;29;20053;-72
2023/07/28 09:41:30;;;;;;;6.15;3.33;;;22.60;99.90;;;;;;4906740;29;20210;-74
2023/07/28 09:43:57;;;;;;;6.13;3.40;;;22.90;99.90;;;;;;4911281;29;20032;-73
2023/07/28 09:46:24;;;;;;;5.88;2.97;;;23.10;99.90;;;;;;4911489;29;20031;-73
2023/07/28 09:48:54;;;;;;;6.85;3.53;;;23.30;99.90;;;;;;4929600;29;20135;-74
2023/07/28 09:51:22;;;;;;;5.47;2.80;;;23.80;99.90;;;;;;4928007;29;20246;-73
2023/07/28 09:53:59;;;;;;;7.80;3.30;;;24.00;99.90;;;;;;4927125;29;20028;-74
2023/07/28 09:56:29;;;;;;;4.68;2.45;;;24.40;99.90;;;;;;4929302;29;20104;-73
2023/07/28 09:58:57;;;;;;;3.90;2.35;;;24.70;99.60;;;;;;4929673;29;20195;-73
2023/07/28 10:01:23;;;;;;;5.28;2.50;;;24.80;99.30;;;;;;4928036;29;20069;-73
2023/07/28 10:03:50;;;;;;;4.93;2.42;;;24.70;98.70;;;;;;4929784;29;20027;-74
2023/07/28 10:06:17;;;;;;;6.20;2.60;;;24.60;98.90;;;;;;4929817;29;20083;-72
2023/07/28 10:08:44;;;;;;;4.95;2.30;;;24.70;98.70;;;;;;4929359;29;20139;-73
2023/07/28 10:11:12;;;;;;;3.83;2.17;;;24.80;98.80;;;;;;4929863;29;20369;-73
2023/07/28 10:13:42;;;;;;;4.47;2.35;;;24.90;97.80;;;;;;4929070;29;20080;-73
2023/07/28 10:16:12;;;;;;;4.20;2.10;;;24.80;97.60;;;;;;4929472;29;20040;-74
2023/07/28 10:18:37;;;;;;;5.28;2.58;;;25.00;97.60;;;;;;4928588;29;20054;-73
2023/07/28 10:21:12;;;;;;;4.80;2.17;;;25.20;97.10;;;;;;4929628;29;20301;-74
2023/07/28 10:23:39;;;;;;;3.15;1.83;;;25.20;96.30;;;;;;4928242;29;20032;-74
2023/07/28 10:26:05;;;;;;;3.67;1.80;;;25.10;96.70;;;;;;4929197;29;20052;-73
2023/07/28 10:28:38;;;;;;;5.13;1.70;;;24.90;96.40;;;;;;4928812;29;20036;-74
2023/07/28 10:31:06;;;;;;;5.07;1.98;;;24.80;96.80;;;;;;4929463;29;20179;-74
2023/07/28 10:33:36;;;;;;;;;;;24.70;96.90;;;;;;4929230;29;20047;-74
2023/07/28 10:36:19;;;;;;;4.55;2.17;;;24.50;97.10;;;;;;4929201;29;19906;-73
2023/07/28 10:38:45;;;;;;;4.32;2.08;;;24.50;96.90;;;;;;4928500;29;20068;-74
2023/07/28 10:41:16;;;;;;;7.32;2.35;;;24.40;97.40;;;;;;4929349;29;20080;-74
2023/07/28 10:43:44;;;;;;;4.57;1.95;;;24.40;97.70;;;;;;4928880;29;20521;-73
2023/07/28 10:46:13;;;;;;;11.63;8.68;;;24.40;97.60;;;;;;4911827;29;20028;-73
2023/07/28 10:48:44;;;;;;;7.05;3.83;;;24.50;97.30;;;;;;4929106;29;20051;-73
2023/07/28 10:51:11;;;;;;;4.72;3.38;;;24.60;97.80;;;;;;4929146;29;20036;-74
2023/07/28 10:53:37;;;;;;;4.40;2.40;;;24.70;97.10;;;;;;4927897;29;20210;-74
2023/07/28 10:56:04;;;;;;;5.93;2.30;;;24.80;97.10;;;;;;4927751;29;20178;-74
2023/07/28 10:58:31;;;;;;;5.97;2.78;;;24.70;97.00;;;;;;4927271;29;20035;-76
2023/07/28 11:00:57;;;;;;;5.38;3.55;;;24.60;96.90;;;;;;4928660;29;20117;-75
2023/07/28 11:03:23;;;;;;;3.22;2.10;;;24.70;96.50;;;;;;4928645;29;20311;-75
2023/07/28 11:05:50;;;;;;;3.72;2.08;;;24.90;96.30;;;;;;4928579;29;20255;-74
2023/07/28 11:08:16;;;;;;;4.63;2.00;;;25.10;96.20;;;;;;4911417;29;20024;-76
2023/07/28 11:10:42;;;;;;;4.60;1.70;;;25.30;95.60;;;;;;4928057;29;20043;-75
2023/07/28 11:13:08;;;;;;;3.90;1.88;;;25.90;94.90;;;;;;4928513;29;20032;-76
2023/07/28 11:15:37;;;;;;;3.53;2.10;;;26.40;94.10;;;;;;4928408;29;20024;-75
2023/07/28 11:18:04;;;;;;;3.15;1.80;;;27.10;93.40;;;;;;4911250;29;20050;-74
2023/07/28 11:20:44;;;;;;;5.28;1.77;;;27.20;92.80;;;;;;4927780;29;20046;-73
2023/07/28 11:23:14;;;;;;;3.85;1.70;;;27.40;92.30;;;;;;4911098;29;20059;-75
2023/07/28 11:25:44;;;;;;;4.05;1.80;;;27.50;91.80;;;;;;4927961;29;20077;-76
2023/07/28 11:28:18;;;;;;;3.80;2.03;;;27.20;91.60;;;;;;4927802;29;20032;-78
2023/07/28 11:30:47;;;;;;;2.95;1.60;;;27.40;92.10;;;;;;4927045;29;20542;-75
2023/07/28 11:33:13;;;;;;;3.83;1.70;;;27.70;91.40;;;;;;4928148;29;20040;-79
2023/07/28 11:35:40;;;;;;;3.97;1.52;;;27.60;90.90;;;;;;4927569;29;20044;-73
2023/07/28 11:38:19;;;;;;;3.33;1.50;;;27.60;90.80;;;;;;4928006;29;20032;-75
2023/07/28 11:40:45;;;;;;;;;;;27.70;90.70;;;;;;4929559;29;20389;-75
2023/07/28 11:43:11;;;;;;;2.53;0.93;;;28.10;90.30;;;;;;4947213;29;19910;-74
2023/07/28 11:45:40;;;;;;;2.47;1.25;;;28.50;88.10;;;;;;4945315;29;20027;-75
2023/07/28 11:48:31;;;;;;;2.55;1.00;;;28.90;87.30;;;;;;4944878;29;20035;-76
2023/07/28 11:51:00;;;;;;;1.98;1.02;;;29.50;85.80;;;;;;4946981;29;20055;-74
2023/07/28 11:53:33;;;;;;;1.70;0.80;;;29.70;83.50;;;;;;4914329;29;20222;-74
2023/07/28 11:56:01;;;;;;;1.50;0.80;;;29.40;82.80;;;;;;4946637;29;20317;-75
2023/07/28 11:58:30;;;;;;;3.72;0.82;;;28.70;83.40;;;;;;4946180;29;20036;-73
2023/07/28 12:00:56;;;;;;;3.38;0.90;;;28.50;85.30;;;;;;4946986;29;20096;-74
2023/07/28 12:03:29;;;;;;;1.73;0.70;;;28.30;85.60;;;;;;4946491;29;20039;-74
2023/07/28 12:06:01;;;;;;;2.10;1.00;;;27.90;86.00;;;;;;4947021;29;20072;-75
2023/07/28 12:08:37;;;;;;;2.75;0.60;;;27.60;87.00;;;;;;4945616;29;20050;-75
2023/07/28 12:11:03;;;;;;;1.67;0.80;;;27.20;87.20;;;;;;4946815;29;20043;-73
2023/07/28 12:13:28;;;;;;;1.60;0.60;;;26.90;92.60;;;;;;4946073;29;20019;-74
2023/07/28 12:15:54;;;;;;;1.67;0.77;;;26.50;92.10;;;;;;4946446;29;20020;-73
2023/07/28 12:18:29;;;;;;;1.70;0.90;;;26.10;93.00;;;;;;4946848;29;20043;-75
2023/07/28 12:20:55;;;;;;;2.72;1.17;;;25.50;92.90;;;;;;4946383;29;20052;-74
2023/07/28 12:23:22;;;;;;;2.65;1.50;;;25.20;93.10;;;;;;4946265;29;20035;-73
2023/07/28 12:25:49;;;;;;;3.00;1.77;;;25.00;93.70;;;;;;4947619;29;20123;-74
2023/07/28 12:28:15;;;;;;;3.63;1.70;;;24.90;93.30;;;;;;4930009;29;20031;-74
2023/07/28 12:30:44;;;;;;;2.95;1.58;;;24.70;93.30;;;;;;4946205;29;20361;-75
2023/07/28 12:33:16;;;;;;;3.58;1.35;;;24.70;94.20;;;;;;4930133;29;20059;-75
2023/07/28 12:35:44;;;;;;;3.35;2.15;;;24.70;94.20;;;;;;4946270;29;20037;-73
2023/07/28 12:38:10;;;;;;;3.53;1.60;;;24.60;94.90;;;;;;4944379;29;20047;-73
2023/07/28 12:40:36;;;;;;;3.20;1.50;;;24.70;93.20;;;;;;4928037;29;20181;-75
2023/07/28 12:43:02;;;;;;;3.55;1.98;;;24.80;93.70;;;;;;4927077;29;20104;-74
2023/07/28 12:45:28;;;;;;;2.35;1.25;;;24.70;94.00;;;;;;4926462;29;20024;-74
2023/07/28 12:47:57;;;;;;;3.60;1.40;;;25.10;93.50;;;;;;4926593;29;20039;-76
2023/07/28 12:50:23;;;;;;;2.97;1.27;;;25.40;93.70;;;;;;4926882;29;20322;-74
2023/07/28 12:52:50;;;;;;;3.58;1.13;;;25.70;93.20;;;;;;4909766;29;20032;-74
2023/07/28 12:55:19;;;;;;;2.47;1.40;;;26.00;92.20;;;;;;4926942;29;20047;-74
2023/07/28 12:57:48;;;;;;;3.55;1.30;;;26.40;92.10;;;;;;4926443;29;20031;-75
2023/07/28 13:00:15;;;;;;;3.75;1.30;;;26.20;91.90;;;;;;4926353;29;20100;-74
2023/07/28 13:02:45;;;;;;;2.10;1.00;;;26.40;92.10;;;;;;4926055;29;20345;-75
2023/07/28 13:05:12;;;;;;;3.97;1.20;;;26.30;91.20;;;;;;4909730;29;20062;-73
2023/07/28 13:07:39;;;;;;;2.38;1.38;;;26.30;91.80;;;;;;4926166;29;20314;-74
2023/07/28 13:10:08;;;;;;;1.95;1.13;;;26.30;91.30;;;;;;4926850;29;20241;-73
2023/07/28 13:12:34;;;;;;;2.10;1.05;;;26.20;90.90;;;;;;4925791;29;20042;-74
2023/07/28 13:15:00;;;;;;;2.38;1.13;;;26.10;90.60;;;;;;4910088;29;20028;-73
2023/07/28 13:17:26;;;;;;;1.60;0.98;;;26.00;91.40;;;;;;4926460;29;20039;-74
2023/07/28 13:19:57;;;;;;;2.33;1.17;;;26.00;91.10;;;;;;4925411;29;20079;-74
2023/07/28 13:22:23;;;;;;;2.38;1.30;;;25.90;91.70;;;;;;4926559;29;20039;-73
2023/07/28 13:24:48;;;;;;;2.70;1.40;;;25.90;92.90;;;;;;4925847;29;20035;-73
2023/07/28 13:27:14;;;;;;;3.97;1.10;;;26.00;92.10;;;;;;4909477;29;20040;-74
2023/07/28 13:29:40;;;;;;;4.03;1.50;;;25.80;92.30;;;;;;4926256;29;20051;-74
2023/07/28 13:32:17;;;;;;;3.05;1.20;;;25.70;94.00;;;;;;4926087;29;20020;-74
2023/07/28 13:34:42;;;;;;;2.80;1.40;;;25.50;94.00;;;;;;4921820;29;20036;-77
2023/07/28 13:37:09;;;;;;;2.60;1.23;;;25.30;95.20;;;;;;4907412;29;20041;-75
2023/07/28 13:39:35;;;;;;;2.42;1.35;;;25.10;95.50;;;;;;4889983;29;20338;-75
2023/07/28 13:42:00;;;;;;;2.97;1.70;;;24.90;95.70;;;;;;4907317;29;20025;-75
2023/07/28 13:44:26;;;;;;;3.88;1.50;;;24.50;96.30;;;;;;4907650;29;20120;-74
2023/07/28 13:46:52;;;;;;;3.05;1.73;;;24.10;96.80;;;;;;4913763;29;20035;-74
2023/07/28 13:49:17;;;;;;;3.47;1.80;;;23.80;98.20;;;;;;4926153;29;20078;-73
2023/07/28 13:51:43;;;;;;;3.08;1.80;;;23.50;99.00;;;;;;4925824;29;20036;-74
2023/07/28 13:54:11;;;;;;;5.38;2.25;;;23.10;99.90;;;;;;4926361;29;20043;-75
2023/07/28 13:56:39;;;;;;;5.97;2.03;;;22.80;99.90;;;;;;4925727;29;20099;-75
2023/07/28 13:59:05;;;;;;;;;;;22.20;99.90;;;;;;4926347;29;20040;-74
2023/07/28 14:01:30;;;;;;;6.40;2.60;;;21.60;99.90;;;;;;4926051;29;19960;-74
2023/07/28 14:03:56;;;;;;;5.95;2.50;;;21.10;99.90;;;;;;4925487;29;20033;-74
2023/07/28 14:06:22;;;;;;;5.55;3.03;;;20.60;99.90;;;;;;4925850;29;20037;-74
2023/07/28 14:08:47;;;;;;;5.22;2.97;;;20.20;99.90;;;;;;4925481;29;20072;-74
2023/07/28 14:11:13;;;;;;;10.48;3.72;;;20.00;99.90;;;;;;4926297;29;20201;-75
2023/07/28 14:13:39;;;;;;;7.47;3.80;;;19.90;99.90;;;;;;4925792;29;20030;-75
2023/07/28 14:16:05;;;;;;;8.15;3.92;;;19.90;99.90;;;;;;4909068;29;20041;-74
2023/07/28 14:18:31;;;;;;;8.95;4.18;;;19.80;99.90;;;;;;4909001;29;20028;-73
2023/07/28 14:20:56;;;;;;;8.13;4.07;;;19.70;99.90;;;;;;4925163;29;20032;-74
2023/07/28 14:23:23;;;;;;;6.25;3.72;;;19.80;99.90;;;;;;4925666;29;20333;-74
2023/07/28 14:25:49;;;;;;;4.60;3.17;;;19.80;99.90;;;;;;4925201;29;20036;-75
2023/07/28 14:28:15;;;;;;;4.60;3.17;;;20.00;99.90;;;;;;4925497;29;20309;-74
2023/07/28 14:30:46;;;;;;;5.35;3.53;;;20.10;99.90;;;;;;4925404;29;20215;-75
2023/07/28 14:33:13;;;;;;;6.10;3.45;;;20.30;99.90;;;;;;4928912;29;20341;-75
2023/07/28 14:35:39;;;;;;;5.40;3.60;;;20.40;99.90;;;;;;4928616;29;20107;-74
2023/07/28 14:38:05;;;;;;;5.07;2.75;;;20.50;99.90;;;;;;4928647;29;20032;-75
2023/07/28 14:40:31;;;;;;;5.45;2.90;;;20.40;99.90;;;;;;4929055;29;20048;-74
2023/07/28 14:42:57;;;;;;;6.10;3.00;;;20.30;99.90;;;;;;4928494;29;20039;-74
2023/07/28 14:45:22;;;;;;;5.63;3.20;;;20.30;99.90;;;;;;4928938;29;20075;-74
2023/07/28 14:47:48;;;;;;;7.72;3.22;;;20.40;99.90;;;;;;4908400;29;20040;-74
2023/07/28 14:50:14;;;;;;;4.32;2.85;;;20.40;99.90;;;;;;4909663;29;20090;-75
2023/07/28 14:52:39;;;;;;;4.32;2.70;;;20.40;99.90;;;;;;4909423;29;20205;-73
2023/07/28 14:55:05;;;;;;;5.72;2.53;;;20.40;99.90;;;;;;4909895;29;20040;-74
2023/07/28 14:57:31;;;;;;;3.40;2.25;;;20.60;99.90;;;;;;4909580;29;20037;-74
2023/07/28 14:59:57;;;;;;;3.83;2.75;;;20.70;99.90;;;;;;4909104;29;20045;-74
2023/07/28 15:02:22;;;;;;;3.80;2.35;;;20.80;99.90;;;;;;4908738;29;20218;-74
2023/07/28 15:04:48;;;;;;;5.68;2.58;;;21.00;99.90;;;;;;4908136;29;20331;-74
2023/07/28 15:07:14;;;;;;;4.38;2.47;;;21.10;99.90;;;;;;4910189;29;20096;-76
2023/07/28 15:09:40;;;;;;;3.60;2.42;;;21.10;99.90;;;;;;4909517;29;20036;-74
2023/07/28 15:12:06;;;;;;;4.40;3.05;;;21.30;99.90;;;;;;4909599;29;20036;-74
2023/07/28 15:14:33;;;;;;;5.28;2.97;;;21.50;99.90;;;;;;4909648;29;20049;-73
2023/07/28 15:17:01;;;;;;;4.75;2.90;;;21.70;99.90;;;;;;4909120;29;20329;-72
2023/07/28 15:19:26;;;;;;;3.85;2.78;;;21.90;99.90;;;;;;4892979;29;20032;-74
2023/07/28 15:21:52;;;;;;;4.72;3.30;;;22.10;99.90;;;;;;4908914;29;20040;-75
2023/07/28 15:24:19;;;;;;;6.43;3.30;;;22.20;99.90;;;;;;4909364;29;20028;-74
2023/07/28 15:26:47;;;;;;;6.35;3.67;;;22.50;99.90;;;;;;4911384;29;20087;-74
2023/07/28 15:29:13;;;;;;;6.13;3.65;;;22.70;99.90;;;;;;4928220;29;20043;-74
2023/07/28 15:31:39;;;;;;;6.03;3.60;;;22.90;99.90;;;;;;4927398;29;20048;-74
2023/07/28 15:34:04;;;;;;;8.27;4.30;;;23.10;99.90;;;;;;4928033;29;20104;-74
2023/07/28 15:36:34;;;;;;;6.82;4.47;;;23.10;99.90;;;;;;4927974;29;20024;-73
2023/07/28 15:38:59;;;;;;;6.40;3.70;;;22.90;99.90;;;;;;4926862;29;20054;-73
2023/07/28 15:41:25;;;;;;;8.20;4.10;;;22.60;99.90;;;;;;4928357;29;20330;-73
2023/07/28 15:43:51;;;;;;;6.90;3.97;;;22.30;99.90;;;;;;4926388;29;20321;-74
2023/07/28 15:46:19;;;;;;;6.82;3.63;;;22.00;99.90;;;;;;4927640;29;20035;-74
2023/07/28 15:48:46;;;;;;;6.72;3.80;;;21.80;99.90;;;;;;4927611;29;20042;-74
2023/07/28 15:51:18;;;;;;;8.45;4.80;;;21.80;99.90;;;;;;4927822;29;20043;-73
2023/07/28 15:53:43;;;;;;;5.90;4.30;;;21.70;99.90;;;;;;4927257;29;20040;-73
2023/07/28 15:56:09;;;;;;;6.88;3.67;;;21.60;99.90;;;;;;4927565;29;20099;-74
2023/07/28 15:58:35;;;;;;;6.72;4.00;;;21.60;99.90;;;;;;4927553;29;20039;-73
2023/07/28 16:01:00;;;;;;;5.63;3.60;;;21.60;99.90;;;;;;4927154;29;20044;-73
2023/07/28 16:03:26;;;;;;;7.93;3.70;;;21.70;99.90;;;;;;4927411;29;20043;-79
2023/07/28 16:05:52;;;;;;;5.80;3.25;;;21.80;99.90;;;;;;4910402;29;20103;-74
2023/07/28 16:08:18;;;;;;;6.38;3.92;;;21.90;99.90;;;;;;4910560;29;20051;-74
2023/07/28 16:10:43;;;;;;;5.40;3.42;;;21.90;99.90;;;;;;4926999;29;20036;-75
2023/07/28 16:13:12;;;;;;;5.28;3.47;;;22.00;99.90;;;;;;4927454;29;20079;-78
2023/07/28 16:15:40;;;;;;;7.40;3.67;;;22.00;99.90;;;;;;4910871;29;20030;-77
2023/07/28 16:18:08;;;;;;;6.40;3.72;;;21.90;99.90;;;;;;4910363;29;20028;-74
2023/07/28 16:20:34;;;;;;;7.72;3.80;;;21.90;99.90;;;;;;4927420;29;20036;-74
2023/07/28 16:22:59;;;;;;;6.72;3.85;;;21.90;99.90;;;;;;4926805;29;20103;-75
2023/07/28 16:25:25;;;;;;;7.43;3.53;;;21.80;99.90;;;;;;4910609;29;20031;-74
2023/07/28 16:27:51;;;;;;;5.50;3.40;;;21.80;99.90;;;;;;4926895;29;20028;-74
2023/07/28 16:30:17;;;;;;;5.72;3.20;;;21.80;99.90;;;;;;4927172;29;20028;-75
2023/07/28 16:32:43;;;;;;;7.05;3.97;;;21.80;99.90;;;;;;4926724;29;20222;-75
2023/07/28 16:35:09;;;;;;;7.20;3.90;;;21.80;99.90;;;;;;4927163;29;20024;-75
2023/07/28 16:37:34;;;;;;;8.20;4.30;;;21.80;99.90;;;;;;4926676;29;20047;-74
2023/07/28 16:40:00;;;;;;;6.18;3.70;;;21.70;99.90;;;;;;4908939;29;20052;-75
2023/07/28 16:42:26;;;;;;;7.10;3.92;;;21.60;99.90;;;;;;4926785;29;20032;-75
2023/07/28 16:44:52;;;;;;;6.20;3.70;;;21.60;99.90;;;;;;4909699;29;20299;-75
2023/07/28 16:47:19;;;;;;;6.68;4.35;;;21.50;99.90;;;;;;4926939;29;20107;-76
2023/07/28 16:49:44;;;;;;;6.88;4.43;;;21.50;99.90;;;;;;4926489;29;20043;-74
2023/07/28 16:52:10;;;;;;;6.75;4.00;;;21.40;99.90;;;;;;4926723;29;20028;-74
2023/07/28 16:54:36;;;;;;;7.75;4.68;;;21.30;99.90;;;;;;4928370;29;20047;-76
2023/07/28 16:57:02;;;;;;;7.88;5.18;;;21.30;99.90;;;;;;4926232;29;20333;-74
2023/07/28 16:59:27;;;;;;;7.25;4.60;;;21.30;99.90;;;;;;4926709;29;20044;-75
2023/07/28 17:01:53;;;;;;;6.47;4.50;;;21.30;99.90;;;;;;4926426;29;20024;-75
2023/07/28 17:04:19;;;;;;;5.95;4.10;;;21.30;99.90;;;;;;4926371;29;20108;-73
2023/07/28 17:06:44;;;;;;;6.53;3.83;;;21.30;99.90;;;;;;4925881;29;20103;-74
2023/07/28 17:09:10;;;;;;;6.97;4.60;;;21.40;99.90;;;;;;4925880;29;20024;-75
2023/07/28 17:11:36;;;;;;;7.88;5.03;;;21.40;99.90;;;;;;4922919;29;20032;-74
2023/07/28 17:14:02;;;;;;;10.05;5.00;;;21.60;99.90;;;;;;4925679;29;20027;-75
2023/07/28 17:16:27;;;;;;;8.65;5.90;;;21.90;99.90;;;;;;4926556;29;20210;-76
2023/07/28 17:18:53;;;;;;;8.35;5.57;;;22.10;99.90;;;;;;4926141;29;20028;-77
2023/07/28 17:21:19;;;;;;;7.97;4.30;;;22.20;99.90;;;;;;4926508;29;20226;-75
2023/07/28 17:23:45;;;;;;;8.25;4.93;;;22.30;99.90;;;;;;4925804;29;20043;-76
2023/07/28 17:26:11;;;;;;;6.05;4.07;;;22.20;99.90;;;;;;4926035;29;20050;-75
2023/07/28 17:28:38;;;;;;;7.43;4.80;;;22.20;99.90;;;;;;4926213;29;20020;-74
2023/07/28 17:31:04;;;;;;;5.55;3.75;;;22.10;99.90;;;;;;4925624;29;20060;-75
2023/07/28 17:33:29;;;;;;;5.22;3.50;;;22.00;99.90;;;;;;4926657;29;20051;-76
2023/07/28 17:35:56;;;;;;;4.97;3.80;;;22.00;99.90;;;;;;4925708;29;20310;-75
2023/07/28 17:38:22;;;;;;;7.53;3.75;;;21.90;99.90;;;;;;4905618;29;20100;-76
2023/07/28 17:40:49;;;;;;;5.90;3.60;;;21.80;99.90;;;;;;4915312;29;20108;-76
2023/07/28 17:43:15;;;;;;;7.03;4.03;;;21.70;99.90;;;;;;4899362;29;20042;-74
2023/07/28 17:45:41;;;;;;;7.70;4.35;;;21.60;99.90;;;;;;4914494;29;20295;-75
2023/07/28 17:48:07;;;;;;;9.93;5.45;;;21.60;99.90;;;;;;4917550;29;20048;-75
2023/07/28 17:50:33;;;;;;;7.32;4.63;;;21.60;99.90;;;;;;4915857;29;20039;-73
2023/07/28 17:52:59;;;;;;;7.70;4.53;;;21.60;99.90;;;;;;4916588;29;20052;-75
2023/07/28 17:55:25;;;;;;;8.05;4.88;;;21.60;99.90;;;;;;4915194;29;20029;-75
2023/07/28 17:57:51;;;;;;;10.18;5.93;;;21.60;99.90;;;;;;4917162;29;20095;-74
2023/07/28 18:00:17;;;;;;;7.25;5.00;;;21.60;99.90;;;;;;4925779;29;20373;-75
2023/07/28 18:02:45;;;;;;;7.53;5.20;;;21.50;99.90;;;;;;4925786;29;20051;-75
2023/07/28 18:05:11;;;;;;;;;;;21.60;99.90;;;;;;4926464;29;20263;-74
2023/07/28 18:07:36;;;;;;;7.78;5.03;;;21.90;99.90;;;;;;4929281;29;19907;-76
2023/07/28 18:10:08;;;;;;;8.88;5.15;;;22.30;99.90;;;;;;4929069;29;20044;-76
2023/07/28 18:12:36;;;;;;;8.20;4.90;;;22.50;99.90;;;;;;4929789;29;20028;-75
2023/07/28 18:15:03;;;;;;;;;;;22.70;99.90;;;;;;4929900;29;20043;-75
2023/07/28 18:17:29;;;;;;;9.18;6.55;;;22.70;99.90;;;;;;4929392;29;19931;-76
2023/07/28 18:19:54;;;;;;;9.00;5.95;;;22.60;99.90;;;;;;4928720;29;20059;-76
2023/07/28 18:22:20;;;;;;;9.07;4.93;;;22.40;99.90;;;;;;4928088;29;20031;-77
2023/07/28 18:24:46;;;;;;;8.10;5.40;;;22.20;99.90;;;;;;4928555;29;20032;-74
2023/07/28 18:27:11;;;;;;;7.32;5.10;;;22.00;99.90;;;;;;4929076;29;20043;-76
2023/07/28 18:29:40;;;;;;;7.50;4.85;;;21.90;99.90;;;;;;4912355;29;20281;-76
2023/07/28 18:32:06;;;;;;;7.55;5.03;;;21.70;99.90;;;;;;4928797;29;20032;-73
2023/07/28 18:34:32;;;;;;;7.13;5.65;;;21.60;99.90;;;;;;4928968;29;20191;-74
2023/07/28 18:36:58;;;;;;;11.25;6.13;;;21.40;99.90;;;;;;4928391;29;20028;-76
2023/07/28 18:39:23;;;;;;;8.88;6.15;;;21.20;99.90;;;;;;4911912;29;20048;-75
2023/07/28 18:41:49;;;;;;;6.60;4.80;;;21.00;99.90;;;;;;4928517;29;20028;-75
2023/07/28 18:44:15;;;;;;;8.85;6.10;;;20.80;99.90;;;;;;4927584;29;20055;-77
2023/07/28 18:46:40;;;;;;;13.80;7.03;;;20.70;99.90;;;;;;4928866;29;20213;-76
2023/07/28 18:49:06;;;;;;;9.20;6.22;;;20.60;99.90;;;;;;4928330;29;20759;-75
2023/07/28 18:51:32;;;;;;;9.30;7.22;;;20.50;99.90;;;;;;4929241;29;20032;-74
2023/07/28 18:53:59;;;;;;;9.73;6.47;;;20.40;99.90;;;;;;4928410;29;20028;-74
2023/07/28 18:56:24;;;;;;;9.10;6.15;;;20.30;99.90;;;;;;4929072;29;20024;-75
2023/07/28 18:58:50;;;;;;;9.40;6.35;;;20.20;99.90;;;;;;4928547;29;20020;-75
2023/07/28 19:01:16;;;;;;;9.60;6.97;;;20.10;99.90;;;;;;4928822;29;20238;-75
2023/07/28 19:03:42;;;;;;;10.23;5.47;;;20.10;99.90;;;;;;4928291;29;20050;-74
2023/07/28 19:06:08;;;;;;;11.90;7.40;;;20.00;99.90;;;;;;4927119;29;20044;-75
2023/07/28 19:08:34;;;;;;;12.88;7.40;;;20.00;99.90;;;;;;4927994;29;20322;-75
2023/07/28 19:11:00;;;;;;;13.52;8.35;;;20.00;99.90;;;;;;4918790;29;20328;-75
2023/07/28 19:13:29;;;;;;;11.82;7.78;;;19.90;99.90;;;;;;4926423;29;20111;-75
2023/07/28 19:15:55;;;;;;;12.68;9.10;;;19.90;99.90;;;;;;4922956;29;20044;-75
2023/07/28 19:18:22;;;;;;;11.50;8.45;;;19.80;99.90;;;;;;4926792;29;20028;-75
2023/07/28 19:20:48;;;;;;;12.07;8.38;;;19.80;99.90;;;;;;4928176;29;20044;-78
2023/07/28 19:23:14;;;;;;;12.63;7.70;;;19.70;99.90;;;;;;4928689;29;20091;-76
2023/07/28 19:25:39;;;;;;;11.35;7.10;;;19.70;99.90;;;;;;4927000;29;20027;-76
2023/07/28 19:28:06;;;;;;;12.77;9.02;;;19.70;99.90;;;;;;4902169;29;20064;-73
2023/07/28 19:30:32;;;;;;;9.85;6.78;;;19.70;99.90;;;;;;4917726;29;20306;-77
2023/07/28 19:32:58;;;;;;;12.68;7.95;;;19.70;99.90;;;;;;4926654;29;20195;-73
2023/07/28 19:35:24;;;;;;;12.23;8.30;;;19.60;99.90;;;;;;4921259;29;20036;-74
2023/07/28 19:37:50;;;;;;;11.77;8.30;;;19.60;99.90;;;;;;4911457;29;20037;-75
2023/07/28 19:40:16;;;;;;;11.05;7.93;;;19.60;99.90;;;;;;4922402;29;20044;-74
2023/07/28 19:42:42;;;;;;;10.55;7.40;;;19.60;99.90;;;;;;4922021;29;20048;-75
2023/07/28 19:45:08;;;;;;;12.95;9.18;;;19.50;99.90;;;;;;4908611;29;20036;-74
2023/07/28 19:47:36;;;;;;;11.55;8.77;;;19.50;99.90;;;;;;4911722;29;20062;-75
2023/07/28 19:50:04;;;;;;;14.82;9.65;;;19.50;99.90;;;;;;4924101;29;20259;-75
2023/07/28 19:52:29;;;;;;;13.02;8.55;;;19.50;99.90;;;;;;4927610;29;20008;-74
2023/07/28 19:54:58;;;;;;;10.88;7.68;;;19.40;99.90;;;;;;4920162;29;20059;-74
2023/07/28 19:57:24;;;;;;;12.85;8.60;;;19.40;99.90;;;;;;4916601;29;20039;-74
2023/07/28 19:59:50;;;;;;;12.13;9.52;;;19.40;99.90;;;;;;4924869;29;20115;-75
2023/07/28 20:02:15;;;;;;;17.75;11.13;;;19.40;99.90;;;;;;4913904;29;20294;-75
2023/07/28 20:04:41;;;;;;;12.82;9.32;;;19.30;99.90;;;;;;4898259;29;20039;-75
2023/07/28 20:07:13;;;;;;;13.65;10.20;;;19.20;99.90;;;;;;4911973;29;20047;-75
2023/07/28 20:09:38;;;;;;;14.90;10.27;;;19.10;99.90;;;;;;4924442;29;20063;-75
2023/07/28 20:12:06;;;;;;;11.30;8.70;;;19.10;99.90;;;;;;4903742;29;20028;-74
2023/07/28 20:14:33;;;;;;;13.75;9.38;;;19.00;99.90;;;;;;4923280;29;20089;-74
2023/07/28 20:16:59;;;;;;;11.93;8.18;;;18.90;99.90;;;;;;4912323;29;20032;-75
2023/07/28 20:19:25;;;;;;;9.68;7.82;;;18.90;99.90;;;;;;4904687;29;20083;-75
2023/07/28 20:21:50;;;;;;;10.55;6.80;;;18.90;99.90;;;;;;4920703;29;20028;-76